createdAt,value
2023-03-02T00:01:06.335Z,101606.23
2023-03-02T00:03:40.453Z,101604.41
2023-03-02T00:06:13.334Z,101604.38
2023-03-02T00:08:47.384Z,101609.08
2023-03-02T00:11:19.647Z,101609.48
2023-03-02T00:13:51.922Z,101611.09
2023-03-02T00:16:24.277Z,101609.13
2023-03-02T00:18:56.569Z,101609.04
2023-03-02T00:21:29.019Z,101607.66
2023-03-02T00:24:01.398Z,101608.95
2023-03-02T00:26:36.345Z,101607.77
2023-03-02T00:29:08.927Z,101600.98
2023-03-02T00:31:41.330Z,101601.39
2023-03-02T00:34:13.794Z,101595.82
2023-03-02T00:36:49.632Z,101591.27
2023-03-02T00:39:22.068Z,101585.14
2023-03-02T00:41:54.441Z,101588.56
2023-03-02T00:44:26.790Z,101587.08
2023-03-02T00:46:59.256Z,101588.54
2023-03-02T00:49:31.669Z,101588.63
2023-03-02T00:52:04.575Z,101586.59
2023-03-02T00:54:37.042Z,101579.88
2023-03-02T00:57:09.399Z,101573.63
2023-03-02T00:59:42.363Z,101569.03
2023-03-02T01:02:14.860Z,101565.29
2023-03-02T01:04:48.387Z,101560.95
2023-03-02T01:07:22.476Z,101563.17
2023-03-02T01:09:55.009Z,101565.22
2023-03-02T01:12:27.347Z,101563.48
2023-03-02T01:14:59.832Z,101566.45
2023-03-02T01:17:32.311Z,101569.29
2023-03-02T01:20:05.791Z,101571.84
2023-03-02T01:22:38.109Z,101567.07
2023-03-02T01:25:11.197Z,101562.82
2023-03-02T01:27:43.613Z,101563.38
2023-03-02T01:30:17.075Z,101566.39
2023-03-02T01:32:49.582Z,101565.19
2023-03-02T01:35:22.297Z,101566.70
2023-03-02T01:37:54.806Z,101569.54
2023-03-02T01:40:27.269Z,101569.34
2023-03-02T01:43:02.550Z,101563.54
2023-03-02T01:46:01.111Z,101559.84
2023-03-02T01:48:38.513Z,101559.16
2023-03-02T01:51:16.055Z,101551.64
2023-03-02T01:53:50.702Z,101551.02
2023-03-02T01:56:26.340Z,101552.84
2023-03-02T01:59:02.638Z,101552.52
2023-03-02T02:01:36.873Z,101553.98
2023-03-02T02:04:09.644Z,101552.63
2023-03-02T02:06:45.929Z,101551.88
2023-03-02T02:09:21.958Z,101544.23
2023-03-02T02:11:52.560Z,101538.25
2023-03-02T02:14:25.760Z,101539.47
2023-03-02T02:16:58.340Z,101537.52
2023-03-02T02:19:44.416Z,101539.52
2023-03-02T02:22:22.756Z,101540.87
2023-03-02T02:24:58.740Z,101539.70
2023-03-02T02:27:34.290Z,101542.98
2023-03-02T02:30:12.780Z,101545.45
2023-03-02T02:32:49.100Z,101549.11
2023-03-02T02:35:27.453Z,101549.54
2023-03-02T02:38:04.371Z,101554.64
2023-03-02T02:40:51.115Z,101556.77
2023-03-02T02:43:25.266Z,101557.21
2023-03-02T02:46:00.538Z,101559.44
2023-03-02T02:48:35.906Z,101559.20
2023-03-02T02:51:10.585Z,101562.08
2023-03-02T02:53:49.132Z,101562.79
2023-03-02T02:56:21.791Z,101561.66
2023-03-02T02:58:57.233Z,101559.69
2023-03-02T03:01:29.997Z,101551.61
2023-03-02T03:04:05.930Z,101551.06
2023-03-02T03:06:42.752Z,101551.77
2023-03-02T03:09:15.233Z,101551.63
2023-03-02T03:11:50.977Z,101552.83
2023-03-02T03:14:28.195Z,101555.73
2023-03-02T03:17:00.539Z,101554.09
2023-03-02T03:19:34.197Z,101551.05
2023-03-02T03:22:06.640Z,101552.81
2023-03-02T03:24:39.373Z,101548.30
2023-03-02T03:27:13.646Z,101546.73
2023-03-02T03:29:48.934Z,101555.70
2023-03-02T03:32:22.011Z,101556.23
2023-03-02T03:34:54.487Z,101558.77
2023-03-02T03:37:26.998Z,101562.08
2023-03-02T03:39:59.384Z,101566.08
2023-03-02T03:42:32.757Z,101566.64
2023-03-02T03:45:05.226Z,101564.71
2023-03-02T03:47:37.680Z,101566.95
2023-03-02T03:50:11.465Z,101570.05
2023-03-02T03:52:43.903Z,101574.38
2023-03-02T03:55:16.512Z,101577.48
2023-03-02T03:57:48.841Z,101576.06
2023-03-02T04:00:24.348Z,101574.14
2023-03-02T04:02:57.132Z,101579.03
2023-03-02T04:05:31.498Z,101578.04
2023-03-02T04:08:04.141Z,101578.05
2023-03-02T04:10:37.344Z,101579.16
2023-03-02T04:13:10.090Z,101581.48
2023-03-02T04:15:46.545Z,101580.71
2023-03-02T04:18:19.413Z,101582.77
2023-03-02T04:20:51.692Z,101584.43
2023-03-02T04:23:23.911Z,101586.29
2023-03-02T04:25:56.172Z,101587.70
2023-03-02T04:28:28.610Z,101588.61
2023-03-02T04:31:00.932Z,101589.75
2023-03-02T04:33:33.358Z,101598.16
2023-03-02T04:36:06.020Z,101601.66
2023-03-02T04:38:38.281Z,101603.20
2023-03-02T04:41:10.675Z,101599.92
2023-03-02T04:43:43.097Z,101599.54
2023-03-02T04:46:20.459Z,101607.77
2023-03-02T04:48:53.192Z,101607.66
2023-03-02T04:51:28.999Z,101607.92
2023-03-02T04:54:07.420Z,101611.02
2023-03-02T04:56:39.824Z,101613.40
2023-03-02T04:59:12.195Z,101611.09
2023-03-02T05:01:44.672Z,101612.38
2023-03-02T05:04:17.304Z,101613.49
2023-03-02T05:06:49.779Z,101611.25
2023-03-02T05:09:27.501Z,101619.73
2023-03-02T05:12:01.700Z,101622.53
2023-03-02T05:14:34.098Z,101629.88
2023-03-02T05:17:06.517Z,101630.14
2023-03-02T05:19:39.574Z,101639.16
2023-03-02T05:22:11.965Z,101637.58
2023-03-02T05:24:44.300Z,101639.03
2023-03-02T05:27:16.730Z,101633.95
2023-03-02T05:29:49.009Z,101634.81
2023-03-02T05:32:21.356Z,101634.61
2023-03-02T05:34:53.674Z,101639.55
2023-03-02T05:37:26.065Z,101635.90
2023-03-02T05:39:58.484Z,101637.89
2023-03-02T05:42:30.700Z,101642.30
2023-03-02T05:45:03.124Z,101637.87
2023-03-02T05:47:35.526Z,101643.25
2023-03-02T05:50:09.398Z,101642.11
2023-03-02T05:52:41.782Z,101638.64
2023-03-02T05:55:15.742Z,101642.66
2023-03-02T05:57:49.453Z,101642.58
2023-03-02T06:00:23.562Z,101647.58
2023-03-02T06:02:57.276Z,101647.87
2023-03-02T06:05:30.190Z,101652.67
2023-03-02T06:08:02.935Z,101654.40
2023-03-02T06:10:36.090Z,101654.89
2023-03-02T06:13:08.505Z,101651.39
2023-03-02T06:15:40.969Z,101651.02
2023-03-02T06:18:13.951Z,101649.16
2023-03-02T06:20:46.293Z,101647.29
2023-03-02T06:23:18.691Z,101644.94
2023-03-02T06:25:51.143Z,101642.08
2023-03-02T06:28:23.562Z,101635.34
2023-03-02T06:30:56.372Z,101638.80
2023-03-02T06:33:28.852Z,101634.52
2023-03-02T06:36:01.416Z,101644.65
2023-03-02T06:38:33.880Z,101642.54
2023-03-02T06:41:06.432Z,101648.51
2023-03-02T06:43:38.761Z,101648.10
2023-03-02T06:46:11.372Z,101649.17
2023-03-02T06:48:43.920Z,101651.51
2023-03-02T06:51:16.338Z,101652.82
2023-03-02T06:53:48.665Z,101649.92
2023-03-02T06:56:21.136Z,101651.14
2023-03-02T06:58:54.050Z,101652.84
2023-03-02T07:01:26.440Z,101649.58
2023-03-02T07:03:59.296Z,101651.61
2023-03-02T07:06:31.794Z,101647.73
2023-03-02T07:09:04.602Z,101646.77
2023-03-02T07:11:36.895Z,101648.17
2023-03-02T07:14:09.504Z,101652.36
2023-03-02T07:16:42.119Z,101649.40
2023-03-02T07:19:15.997Z,101648.63
2023-03-02T07:21:48.348Z,101650.40
2023-03-02T07:24:20.688Z,101650.23
2023-03-02T07:26:53.184Z,101654.83
2023-03-02T07:29:25.451Z,101658.14
2023-03-02T07:32:00.633Z,101656.36
2023-03-02T07:34:33.176Z,101657.02
2023-03-02T07:37:05.676Z,101654.59
2023-03-02T07:39:38.181Z,101658.54
2023-03-02T07:42:13.008Z,101660.41
2023-03-02T07:44:45.383Z,101657.71
2023-03-02T07:47:17.858Z,101661.09
2023-03-02T07:49:50.204Z,101657.90
2023-03-02T07:52:22.621Z,101657.45
2023-03-02T07:54:55.021Z,101658.43
2023-03-02T07:57:27.394Z,101652.95
2023-03-02T07:59:59.741Z,101654.55
2023-03-02T08:02:33.796Z,101647.91
2023-03-02T08:05:06.773Z,101645.64
2023-03-02T08:07:40.036Z,101648.12
2023-03-02T08:10:14.110Z,101642.52
2023-03-02T08:12:46.619Z,101649.03
2023-03-02T08:15:19.158Z,101650.48
2023-03-02T08:17:51.559Z,101649.02
2023-03-02T08:20:23.922Z,101645.52
2023-03-02T08:22:56.291Z,101652.14
2023-03-02T08:25:29.082Z,101648.50
2023-03-02T08:28:01.553Z,101649.00
2023-03-02T08:30:33.903Z,101657.92
2023-03-02T08:33:07.316Z,101662.01
2023-03-02T08:35:39.950Z,101662.47
2023-03-02T08:38:12.288Z,101664.08
2023-03-02T08:40:44.638Z,101663.84
2023-03-02T08:43:17.047Z,101663.36
2023-03-02T08:45:53.941Z,101662.59
2023-03-02T08:48:27.488Z,101665.77
2023-03-02T08:51:01.870Z,101664.90
2023-03-02T08:53:38.013Z,101665.98
2023-03-02T08:56:19.101Z,101666.93
2023-03-02T08:58:53.514Z,101663.55
2023-03-02T09:01:28.887Z,101670.04
2023-03-02T09:04:02.207Z,101649.77
2023-03-02T09:06:37.258Z,101662.91
2023-03-02T09:09:12.117Z,101661.81
2023-03-02T09:11:45.060Z,101667.39
2023-03-02T09:14:17.468Z,101664.63
2023-03-02T09:16:49.972Z,101661.39
2023-03-02T09:19:22.374Z,101669.64
2023-03-02T09:21:54.765Z,101661.55
2023-03-02T09:24:27.218Z,101663.44
2023-03-02T09:26:59.665Z,101659.11
2023-03-02T09:29:32.218Z,101657.27
2023-03-02T09:32:04.898Z,101654.73
2023-03-02T09:34:37.912Z,101653.42
2023-03-02T09:37:10.248Z,101651.73
2023-03-02T09:39:42.754Z,101649.83
2023-03-02T09:42:43.179Z,101647.09
2023-03-02T09:45:40.847Z,101649.35
2023-03-02T09:48:22.722Z,101648.97
2023-03-02T09:51:06.299Z,101650.11
2023-03-02T09:53:48.930Z,101645.05
2023-03-02T09:56:23.014Z,101641.14
2023-03-02T09:59:00.801Z,101640.39
2023-03-02T10:01:45.935Z,101636.52
2023-03-02T10:04:25.070Z,101636.61
2023-03-02T10:07:03.136Z,101636.42
2023-03-02T10:09:35.502Z,101637.68
2023-03-02T10:12:25.909Z,101630.39
2023-03-02T10:15:04.541Z,101624.36
2023-03-02T10:17:51.979Z,101621.91
2023-03-02T10:20:34.257Z,101616.23
2023-03-02T10:23:22.095Z,101621.68
2023-03-02T10:26:02.431Z,101619.49
2023-03-02T10:28:39.668Z,101612.35
2023-03-02T10:31:26.016Z,101615.35
2023-03-02T10:33:58.976Z,101612.70
2023-03-02T10:36:36.155Z,101607.77
2023-03-02T10:39:16.348Z,101604.43
2023-03-02T10:41:52.958Z,101603.00
2023-03-02T10:44:30.167Z,101594.77
2023-03-02T10:47:02.840Z,101594.27
2023-03-02T10:49:39.501Z,101591.80
2023-03-02T10:52:17.171Z,101599.33
2023-03-02T10:54:49.924Z,101591.86
2023-03-02T10:57:39.031Z,101586.75
2023-03-02T11:00:26.041Z,101591.10
2023-03-02T11:03:01.326Z,101587.23
2023-03-02T11:05:36.508Z,101587.80
2023-03-02T11:08:18.363Z,101583.04
2023-03-02T11:11:00.536Z,101580.19
2023-03-02T11:13:36.633Z,101571.48
2023-03-02T11:16:28.613Z,101567.41
2023-03-02T11:19:05.032Z,101563.16
2023-03-02T11:21:43.033Z,101558.80
2023-03-02T11:24:19.999Z,101559.80
2023-03-02T11:26:56.227Z,101551.21
2023-03-02T11:29:35.414Z,101543.91
2023-03-02T11:32:14.665Z,101540.14
2023-03-02T11:34:51.820Z,101540.02
2023-03-02T11:37:27.321Z,101537.54
2023-03-02T11:40:14.706Z,101541.71
2023-03-02T11:42:48.368Z,101540.13
2023-03-02T11:45:25.010Z,101537.42
2023-03-02T11:48:03.706Z,101531.25
2023-03-02T11:50:42.406Z,101534.66
2023-03-02T11:53:19.335Z,101533.61
2023-03-02T11:55:52.882Z,101525.99
2023-03-02T11:58:28.266Z,101524.20
2023-03-02T12:01:01.290Z,101527.49
2023-03-02T12:03:45.096Z,101517.12
2023-03-02T12:06:36.717Z,101524.78
2023-03-02T12:09:34.599Z,101522.15
2023-03-02T12:12:41.015Z,101519.30
2023-03-02T12:15:39.314Z,101517.58
2023-03-02T12:18:53.188Z,101521.58
2023-03-02T12:21:27.241Z,101519.92
2023-03-02T12:24:04.173Z,101516.38
2023-03-02T12:26:38.943Z,101504.94
2023-03-02T12:29:25.647Z,101510.48
2023-03-02T12:31:57.598Z,101509.23
2023-03-02T12:34:39.334Z,101509.13
2023-03-02T12:37:18.897Z,101508.59
2023-03-02T12:40:24.896Z,101504.10
2023-03-02T12:43:20.508Z,101509.47
2023-03-02T12:46:14.013Z,101507.66
2023-03-02T12:48:49.700Z,101507.95
2023-03-02T12:51:24.639Z,101503.34
2023-03-02T12:54:07.964Z,101503.96
2023-03-02T12:56:40.372Z,101505.51
2023-03-02T12:59:24.235Z,101500.11
2023-03-02T13:02:07.626Z,101495.27
2023-03-02T13:04:40.004Z,101502.39
2023-03-02T13:07:21.417Z,101500.28
2023-03-02T13:09:57.124Z,101499.27
2023-03-02T13:12:30.788Z,101498.38
2023-03-02T13:15:03.301Z,101495.50
2023-03-02T13:17:35.735Z,101492.19
2023-03-02T13:20:12.173Z,101485.71
2023-03-02T13:22:44.740Z,101485.43
2023-03-02T13:25:25.991Z,101480.06
2023-03-02T13:28:02.554Z,101478.12
2023-03-02T13:30:37.292Z,101476.97
2023-03-02T13:33:23.786Z,101479.79
2023-03-02T13:35:54.661Z,101474.15
2023-03-02T13:38:31.699Z,101469.27
2023-03-02T13:41:04.672Z,101461.12
2023-03-02T13:43:43.562Z,101463.05
2023-03-02T13:46:31.473Z,101459.35
2023-03-02T13:49:11.052Z,101453.86
2023-03-02T13:51:46.645Z,101447.97
2023-03-02T13:54:23.649Z,101450.48
2023-03-02T13:56:58.344Z,101451.01
2023-03-02T13:59:32.055Z,101443.05
2023-03-02T14:02:04.397Z,101442.94
2023-03-02T14:04:36.996Z,101441.50
2023-03-02T14:07:09.362Z,101442.30
2023-03-02T14:09:41.760Z,101437.37
2023-03-02T14:12:23.404Z,101432.11
2023-03-02T14:14:58.134Z,101433.73
2023-03-02T14:17:30.673Z,101433.39
2023-03-02T14:20:03.123Z,101429.13
2023-03-02T14:22:35.715Z,101421.80
2023-03-02T14:25:09.987Z,101424.70
2023-03-02T14:27:43.997Z,101419.97
2023-03-02T14:30:20.171Z,101415.20
2023-03-02T14:32:52.596Z,101408.35
2023-03-02T14:35:26.652Z,101405.70
2023-03-02T14:37:58.937Z,101399.48
2023-03-02T14:40:31.476Z,101394.89
2023-03-02T14:43:03.758Z,101388.05
2023-03-02T14:45:36.120Z,101386.08
2023-03-02T14:48:08.767Z,101388.80
2023-03-02T14:50:45.023Z,101389.27
2023-03-02T14:53:20.906Z,101384.16
2023-03-02T14:55:51.609Z,101385.11
2023-03-02T14:58:30.820Z,101388.02
2023-03-02T15:01:03.666Z,101383.57
2023-03-02T15:03:36.326Z,101387.73
2023-03-02T15:06:20.500Z,101386.17
2023-03-02T15:08:53.078Z,101387.98
2023-03-02T15:11:26.609Z,101387.51
2023-03-02T15:13:59.601Z,101384.98
2023-03-02T15:16:31.931Z,101381.15
2023-03-02T15:19:04.200Z,101378.66
2023-03-02T15:21:37.337Z,101380.69
2023-03-02T15:24:10.435Z,101378.16
2023-03-02T15:26:42.909Z,101378.77
2023-03-02T15:29:15.313Z,101385.51
2023-03-02T15:31:48.063Z,101382.13
2023-03-02T15:34:20.497Z,101382.73
2023-03-02T15:36:52.840Z,101379.59
2023-03-02T15:39:25.472Z,101376.08
2023-03-02T15:41:57.735Z,101379.86
2023-03-02T15:44:30.183Z,101382.30
2023-03-02T15:47:02.955Z,101380.58
2023-03-02T15:49:35.243Z,101379.92
2023-03-02T15:52:07.819Z,101377.00
2023-03-02T15:54:40.238Z,101377.61
2023-03-02T15:57:12.751Z,101380.50
2023-03-02T15:59:46.396Z,101383.20
2023-03-02T16:02:18.774Z,101378.19
2023-03-02T16:04:51.046Z,101384.44
2023-03-02T16:07:23.326Z,101386.56
2023-03-02T16:09:55.719Z,101385.54
2023-03-02T16:12:28.684Z,101388.33
2023-03-02T16:15:01.040Z,101390.23
2023-03-02T16:17:33.421Z,101389.17
2023-03-02T16:20:06.590Z,101386.89
2023-03-02T16:22:38.995Z,101386.95
2023-03-02T16:25:12.218Z,101389.23
2023-03-02T16:27:47.718Z,101386.08
2023-03-02T16:30:23.153Z,101387.29
2023-03-02T16:33:00.310Z,101378.19
2023-03-02T16:35:34.306Z,101378.00
2023-03-02T16:38:08.045Z,101386.52
2023-03-02T16:40:41.137Z,101388.52
2023-03-02T16:43:13.543Z,101389.33
2023-03-02T16:45:46.345Z,101390.91
2023-03-02T16:48:18.846Z,101392.26
2023-03-02T16:50:57.921Z,101392.98
2023-03-02T16:53:30.330Z,101390.31
2023-03-02T16:56:02.814Z,101394.08
2023-03-02T16:58:38.333Z,101397.17
2023-03-02T17:01:12.351Z,101391.81
2023-03-02T17:03:45.743Z,101395.39
2023-03-02T17:06:20.325Z,101395.91
2023-03-02T17:08:52.832Z,101394.57
2023-03-02T17:11:25.293Z,101391.61
2023-03-02T17:13:57.607Z,101393.16
2023-03-02T17:16:30.151Z,101392.05
2023-03-02T17:19:02.735Z,101393.40
2023-03-02T17:21:35.116Z,101391.21
2023-03-02T17:24:07.861Z,101391.52
2023-03-02T17:26:40.143Z,101388.25
2023-03-02T17:29:12.499Z,101390.08
2023-03-02T17:31:44.937Z,101387.77
2023-03-02T17:34:17.592Z,101380.23
2023-03-02T17:36:49.978Z,101382.34
2023-03-02T17:39:22.347Z,101383.23
2023-03-02T17:41:55.471Z,101381.78
2023-03-02T17:44:27.945Z,101377.96
2023-03-02T17:47:00.356Z,101371.06
2023-03-02T17:49:32.890Z,101376.45
2023-03-02T17:52:05.555Z,101377.34
2023-03-02T17:54:37.901Z,101381.66
2023-03-02T17:57:10.744Z,101377.27
2023-03-02T17:59:43.150Z,101379.61
2023-03-02T18:02:15.490Z,101381.33
2023-03-02T18:04:47.842Z,101380.89
2023-03-02T18:07:20.122Z,101380.30
2023-03-02T18:09:52.365Z,101373.97
2023-03-02T18:12:24.569Z,101374.98
2023-03-02T18:14:57.101Z,101374.38
2023-03-02T18:17:29.484Z,101373.90
2023-03-02T18:20:01.873Z,101376.05
2023-03-02T18:22:34.149Z,101378.82
2023-03-02T18:25:07.657Z,101378.92
2023-03-02T18:27:40.002Z,101382.15
2023-03-02T18:30:14.458Z,101377.40
2023-03-02T18:32:46.729Z,101383.27
2023-03-02T18:35:20.435Z,101381.30
2023-03-02T18:37:54.281Z,101379.38
2023-03-02T18:40:26.771Z,101377.98
2023-03-02T18:42:59.146Z,101374.16
2023-03-02T18:45:33.134Z,101376.34
2023-03-02T18:48:06.414Z,101380.73
2023-03-02T18:50:39.793Z,101386.52
2023-03-02T18:53:13.051Z,101384.65
2023-03-02T18:55:45.495Z,101387.72
2023-03-02T18:58:21.546Z,101382.08
2023-03-02T19:00:55.723Z,101388.14
2023-03-02T19:03:28.462Z,101388.59
2023-03-02T19:06:00.969Z,101393.04
2023-03-02T19:08:33.853Z,101392.84
2023-03-02T19:11:07.013Z,101390.52
2023-03-02T19:13:39.506Z,101390.19
2023-03-02T19:16:12.478Z,101391.52
2023-03-02T19:18:44.849Z,101392.70
2023-03-02T19:21:17.287Z,101395.38
2023-03-02T19:23:49.625Z,101391.94
2023-03-02T19:26:21.988Z,101393.47
2023-03-02T19:28:55.098Z,101389.95
2023-03-02T19:31:27.707Z,101393.38
2023-03-02T19:34:00.620Z,101398.36
2023-03-02T19:36:32.969Z,101397.20
2023-03-02T19:39:05.364Z,101394.83
2023-03-02T19:41:37.892Z,101393.11
2023-03-02T19:44:10.793Z,101390.39
2023-03-02T19:46:43.164Z,101390.10
2023-03-02T19:49:15.834Z,101393.17
2023-03-02T19:51:48.297Z,101394.94
2023-03-02T19:54:20.685Z,101397.16
2023-03-02T19:56:54.230Z,101395.38
2023-03-02T19:59:27.368Z,101392.96
2023-03-02T20:01:59.712Z,101394.30
2023-03-02T20:04:32.817Z,101390.34
2023-03-02T20:07:06.021Z,101391.32
2023-03-02T20:09:38.498Z,101388.73
2023-03-02T20:12:11.774Z,101389.34
2023-03-02T20:14:48.749Z,101386.11
2023-03-02T20:17:21.891Z,101389.19
2023-03-02T20:19:56.142Z,101386.43
2023-03-02T20:22:28.384Z,101386.88
2023-03-02T20:25:00.664Z,101385.46
2023-03-02T20:27:33.287Z,101380.85
2023-03-02T20:30:07.938Z,101380.55
2023-03-02T20:32:40.481Z,101374.39
2023-03-02T20:35:14.693Z,101370.71
2023-03-02T20:37:47.860Z,101372.34
2023-03-02T20:40:22.704Z,101370.65
2023-03-02T20:42:55.841Z,101371.98
2023-03-02T20:45:28.586Z,101369.64
2023-03-02T20:48:01.559Z,101369.55
2023-03-02T20:50:36.448Z,101365.84
2023-03-02T20:53:09.384Z,101363.77
2023-03-02T20:55:41.963Z,101359.10
2023-03-02T20:58:14.745Z,101356.73
2023-03-02T21:00:48.755Z,101348.02
2023-03-02T21:03:21.179Z,101344.81
2023-03-02T21:05:53.846Z,101341.40
2023-03-02T21:08:26.370Z,101335.77
2023-03-02T21:10:58.639Z,101327.11
2023-03-02T21:13:31.019Z,101331.31
2023-03-02T21:16:03.580Z,101326.56
2023-03-02T21:18:36.233Z,101323.94
2023-03-02T21:21:09.279Z,101323.27
2023-03-02T21:23:42.122Z,101321.19
2023-03-02T21:26:16.329Z,101318.45
2023-03-02T21:28:49.295Z,101317.86
2023-03-02T21:31:21.648Z,101311.28
2023-03-02T21:33:54.169Z,101309.02
2023-03-02T21:36:27.402Z,101307.64
2023-03-02T21:38:59.957Z,101302.48
2023-03-02T21:41:32.308Z,101299.21
2023-03-02T21:44:05.862Z,101292.10
2023-03-02T21:46:39.593Z,101294.79
2023-03-02T21:49:12.952Z,101293.43
2023-03-02T21:51:45.710Z,101288.40
2023-03-02T21:54:18.587Z,101288.55
2023-03-02T21:56:50.990Z,101289.12
2023-03-02T21:59:23.365Z,101290.96
2023-03-02T22:01:55.922Z,101290.38
2023-03-02T22:04:28.287Z,101283.40
2023-03-02T22:07:01.008Z,101281.34
2023-03-02T22:09:33.416Z,101283.21
2023-03-02T22:12:12.561Z,101279.14
2023-03-02T22:14:45.154Z,101279.14
2023-03-02T22:17:20.529Z,101273.82
2023-03-02T22:19:52.424Z,101273.79
2023-03-02T22:22:30.201Z,101271.14
2023-03-02T22:25:02.532Z,101275.86
2023-03-02T22:27:36.339Z,101277.86
2023-03-02T22:30:20.488Z,101273.91
2023-03-02T22:32:53.066Z,101276.36
2023-03-02T22:35:28.649Z,101275.13
2023-03-02T22:38:06.623Z,101273.39
2023-03-02T22:40:41.377Z,101276.30
2023-03-02T22:43:21.639Z,101270.71
2023-03-02T22:45:55.631Z,101268.08
2023-03-02T22:48:29.566Z,101263.45
2023-03-02T22:51:11.192Z,101261.48
2023-03-02T22:53:47.833Z,101261.11
2023-03-02T22:56:30.089Z,101258.49
2023-03-02T22:59:10.471Z,101256.86
2023-03-02T23:01:45.243Z,101253.16
2023-03-02T23:04:21.899Z,101254.95
2023-03-02T23:06:55.513Z,101251.16
2023-03-02T23:09:30.564Z,101251.69
2023-03-02T23:12:10.843Z,101251.67
2023-03-02T23:14:49.087Z,101245.41
2023-03-02T23:17:28.696Z,101239.87
2023-03-02T23:20:01.318Z,101242.20
2023-03-02T23:22:33.890Z,101238.95
2023-03-02T23:25:07.122Z,101237.59
2023-03-02T23:27:39.379Z,101237.02
2023-03-02T23:30:17.863Z,101232.17
2023-03-02T23:32:50.175Z,101225.74
2023-03-02T23:35:22.679Z,101227.46
2023-03-02T23:37:55.171Z,101222.48
2023-03-02T23:40:27.593Z,101218.65
2023-03-02T23:42:59.997Z,101213.62
2023-03-02T23:45:32.628Z,101211.68
2023-03-02T23:48:05.565Z,101206.56
2023-03-02T23:50:37.895Z,101208.27
2023-03-02T23:53:10.265Z,101208.38
2023-03-02T23:55:48.075Z,101201.73
2023-03-02T23:58:20.490Z,101194.95
